Aledo, IL (61231)

1:13 AM CDT on March 30, 2017 (GMT -0500)
Rural Monmouth | | Change Station

Elev 750 ft 40.96 °N, 90.77 °W | Updated 25 seconds ago

Rain
Rain
45.3 °F
Feels Like 44 °F
N
3.2
Wind Variable Wind from SW

Today
High -- | Low -- °F
--% Chance of Precip.
Yesterday
High -- | Low -- °F
Precip. -- in
Pressure 29.86 in
Visibility 2.0 miles
Clouds Mostly Cloudy 1300 ft
Overcast 2800 ft
Windchill 44 °F
Dew Point 45 °F
Humidity 99%
Rainfall 0.15 in
Snow Depth Not available.
6:49 AM 7:26 PM
Waxing Crescent, 6% visible
SPECI KMLI 300603Z AUTO 08016G20KT 2SM +TSRA BR BKN013 OVC028 07/04 A2986 RMK AO2 LTG DSNT ALQDS P0010 T00670044
Pressure 29.86 in
Visibility 2.0 miles
Clouds Mostly Cloudy 1300 ft
Overcast 2800 ft
Windchill 44 °F
Dew Point 45 °F
Humidity 99%
Rainfall 0.15 in
Snow Depth Not available.
6:49 AM 7:26 PM
Waxing Crescent, 6% visible
SPECI KMLI 300603Z AUTO 08016G20KT 2SM +TSRA BR BKN013 OVC028 07/04 A2986 RMK AO2 LTG DSNT ALQDS P0010 T00670044

Get Severe Weather Alerts

Thanks for signing up!

Be on the lookout for a verification email in your inbox.

You'll start receiving the daily forecast at 8 AM.

×

10-Day Weather Forecast

Almanac

Astronomy

Mar. 30, 2017 Rise Set
Actual Time
Civil Twilight
Nautical Twilight
Astronomical Twilight
Moon
Length of Visible Light
Length of Day
Tomorrow will be .
, % of the Moon is Illuminated

Today's Extremes

State Highs State Lows

Community

WunderPhotos

Upload Photos

1,962,540 photos uploaded!

WunderBlog® & News

Nearby

Air Quality

  Air Quality AQ Index Pollutant
Not available.

Snow Depth

Station Depth Elevation

Earthquake Activity

City Distance Mag. Time & Date
Minimum magnitude displayed is 2.5.

Earthquake Activity

City Distance Mag. Time & Date
Minimum magnitude displayed is 2.5.

Coastal Water Temperatures

Place Temperature

Stations

Nearby Weather Stations

Station Location Temp. Windchill Dew Point Humidity Wind Precip. Elev Updated Type
                   

Watches & Warnings

There are currently no watches in effect.